sensor_id;sensor_type;location;lat;lon;timestamp;pressure;altitude;pressure_sealevel;temperature;humidity
56270;BME280;42176;43.240;27.880;2023-02-13T00:00:59;102153.66;;;-1.49;92.37
56270;BME280;42176;43.240;27.880;2023-02-13T00:03:25;102144.16;;;-1.03;90.53
56270;BME280;42176;43.240;27.880;2023-02-13T00:05:50;102143.41;;;-1.01;86.47
56270;BME280;42176;43.240;27.880;2023-02-13T00:08:15;102147.88;;;-1.73;89.78
56270;BME280;42176;43.240;27.880;2023-02-13T00:10:41;102151.84;;;-1.65;93.35
56270;BME280;42176;43.240;27.880;2023-02-13T00:13:06;102151.69;;;-1.38;91.89
56270;BME280;42176;43.240;27.880;2023-02-13T00:15:32;102150.19;;;-0.58;86.52
56270;BME280;42176;43.240;27.880;2023-02-13T00:17:58;102143.63;;;-1.43;88.74
56270;BME280;42176;43.240;27.880;2023-02-13T00:20:23;102165.00;;;-1.77;92.17
56270;BME280;42176;43.240;27.880;2023-02-13T00:22:49;102127.72;;;-1.47;91.80
56270;BME280;42176;43.240;27.880;2023-02-13T00:25:14;102153.13;;;-0.52;86.57
56270;BME280;42176;43.240;27.880;2023-02-13T00:27:40;102141.84;;;-1.44;88.01
56270;BME280;42176;43.240;27.880;2023-02-13T00:32:33;102155.59;;;-1.60;92.92
56270;BME280;42176;43.240;27.880;2023-02-13T00:34:59;102165.34;;;-1.27;91.69
56270;BME280;42176;43.240;27.880;2023-02-13T00:37:24;102146.25;;;-0.66;86.86
56270;BME280;42176;43.240;27.880;2023-02-13T00:39:50;102166.84;;;-1.46;88.42
56270;BME280;42176;43.240;27.880;2023-02-13T00:42:15;102174.00;;;-1.85;91.91
56270;BME280;42176;43.240;27.880;2023-02-13T00:44:41;102175.47;;;-1.47;92.53
56270;BME280;42176;43.240;27.880;2023-02-13T00:47:06;102155.56;;;-0.55;86.47
56270;BME280;42176;43.240;27.880;2023-02-13T00:49:31;102170.53;;;-1.42;87.82
56270;BME280;42176;43.240;27.880;2023-02-13T00:51:57;102166.47;;;-1.95;92.01
56270;BME280;42176;43.240;27.880;2023-02-13T00:54:22;102175.16;;;-1.66;93.37
56270;BME280;42176;43.240;27.880;2023-02-13T00:56:48;102174.84;;;-1.43;93.19
56270;BME280;42176;43.240;27.880;2023-02-13T00:59:14;102172.69;;;-0.90;86.91
56270;BME280;42176;43.240;27.880;2023-02-13T01:01:39;102183.19;;;-1.77;90.28
56270;BME280;42176;43.240;27.880;2023-02-13T01:04:05;102189.22;;;-1.78;94.12
56270;BME280;42176;43.240;27.880;2023-02-13T01:06:31;102172.13;;;-1.59;93.19
56270;BME280;42176;43.240;27.880;2023-02-13T01:08:56;102175.97;;;-0.78;89.26
56270;BME280;42176;43.240;27.880;2023-02-13T01:11:21;102178.06;;;-1.47;88.83
56270;BME280;42176;43.240;27.880;2023-02-13T01:13:47;102174.50;;;-2.06;92.86
56270;BME280;42176;43.240;27.880;2023-02-13T01:16:12;102174.41;;;-1.79;94.52
56270;BME280;42176;43.240;27.880;2023-02-13T01:18:40;102178.63;;;-1.08;92.76
56270;BME280;42176;43.240;27.880;2023-02-13T01:21:08;102185.06;;;-1.31;88.22
56270;BME280;42176;43.240;27.880;2023-02-13T01:23:39;102180.38;;;-2.08;92.42
56270;BME280;42176;43.240;27.880;2023-02-13T01:26:06;102174.34;;;-1.94;95.48
56270;BME280;42176;43.240;27.880;2023-02-13T01:28:33;102180.78;;;-1.74;94.79
56270;BME280;42176;43.240;27.880;2023-02-13T01:30:58;102178.25;;;-0.84;89.74
56270;BME280;42176;43.240;27.880;2023-02-13T01:33:25;102164.56;;;-1.70;89.55
56270;BME280;42176;43.240;27.880;2023-02-13T01:35:51;102177.53;;;-2.26;93.84
56270;BME280;42176;43.240;27.880;2023-02-13T01:38:17;102177.91;;;-2.07;96.20
56270;BME280;42176;43.240;27.880;2023-02-13T01:40:47;102175.25;;;-1.93;96.06
56270;BME280;42176;43.240;27.880;2023-02-13T01:43:14;102171.97;;;-1.02;91.24
56270;BME280;42176;43.240;27.880;2023-02-13T01:45:40;102164.00;;;-1.79;89.28
56270;BME280;42176;43.240;27.880;2023-02-13T01:48:10;102180.56;;;-2.47;93.68
56270;BME280;42176;43.240;27.880;2023-02-13T01:50:44;102178.25;;;-0.84;89.16
56270;BME280;42176;43.240;27.880;2023-02-13T01:55:56;102164.59;;;-2.53;88.57
56270;BME280;42176;43.240;27.880;2023-02-13T01:58:25;102172.47;;;-2.52;97.64
56270;BME280;42176;43.240;27.880;2023-02-13T02:00:52;102188.94;;;-2.24;97.56
56270;BME280;42176;43.240;27.880;2023-02-13T02:03:46;102183.13;;;-1.05;88.89
56270;BME280;42176;43.240;27.880;2023-02-13T02:06:17;102177.94;;;-2.20;91.58
56270;BME280;42176;43.240;27.880;2023-02-13T02:08:46;102175.50;;;-2.17;95.04
56270;BME280;42176;43.240;27.880;2023-02-13T02:11:23;102178.94;;;-1.61;94.39
56270;BME280;42176;43.240;27.880;2023-02-13T02:13:50;102167.78;;;-1.74;88.82
56270;BME280;42176;43.240;27.880;2023-02-13T02:16:16;102175.88;;;-2.53;93.03
56270;BME280;42176;43.240;27.880;2023-02-13T02:18:41;102179.59;;;-2.49;96.32
56270;BME280;42176;43.240;27.880;2023-02-13T02:40:25;102200.47;;;-2.74;96.10
56270;BME280;42176;43.240;27.880;2023-02-13T02:43:22;102201.75;;;-2.41;96.81
56270;BME280;42176;43.240;27.880;2023-02-13T02:49:12;102190.38;;;-2.56;92.85
56270;BME280;42176;43.240;27.880;2023-02-13T02:57:13;102202.47;;;-2.02;96.10
56270;BME280;42176;43.240;27.880;2023-02-13T02:59:40;102195.19;;;-2.49;91.04
56270;BME280;42176;43.240;27.880;2023-02-13T03:02:27;102218.69;;;-3.13;96.19
56270;BME280;42176;43.240;27.880;2023-02-13T03:05:20;102227.06;;;-3.04;98.62
56270;BME280;42176;43.240;27.880;2023-02-13T03:08:19;102222.53;;;-2.68;97.94
56270;BME280;42176;43.240;27.880;2023-02-13T03:11:05;102225.34;;;-2.51;91.90
56270;BME280;42176;43.240;27.880;2023-02-13T03:13:49;102212.25;;;-3.32;96.37
56270;BME280;42176;43.240;27.880;2023-02-13T03:16:18;102221.06;;;-3.16;98.69
56270;BME280;42176;43.240;27.880;2023-02-13T03:19:02;102211.16;;;-2.83;98.18
56270;BME280;42176;43.240;27.880;2023-02-13T03:21:53;102200.97;;;-2.53;92.33
56270;BME280;42176;43.240;27.880;2023-02-13T03:35:54;102218.97;;;-3.47;96.66
56270;BME280;42176;43.240;27.880;2023-02-13T03:39:00;102215.59;;;-3.72;98.79
56270;BME280;42176;43.240;27.880;2023-02-13T03:41:39;102217.53;;;-3.30;99.47
56270;BME280;42176;43.240;27.880;2023-02-13T03:44:29;102215.53;;;-2.42;92.86
56270;BME280;42176;43.240;27.880;2023-02-13T03:46:58;102225.38;;;-3.42;95.58
56270;BME280;42176;43.240;27.880;2023-02-13T03:49:32;102231.25;;;-3.70;98.48
56270;BME280;42176;43.240;27.880;2023-02-13T03:55:27;102222.88;;;-3.15;98.79
56270;BME280;42176;43.240;27.880;2023-02-13T03:58:33;102224.44;;;-2.79;92.30
56270;BME280;42176;43.240;27.880;2023-02-13T04:01:21;102220.09;;;-3.44;96.50
56270;BME280;42176;43.240;27.880;2023-02-13T04:06:48;102218.28;;;-3.06;98.13
56270;BME280;42176;43.240;27.880;2023-02-13T04:09:16;102212.72;;;-2.32;92.43
56270;BME280;42176;43.240;27.880;2023-02-13T04:11:52;102218.16;;;-3.21;94.21
56270;BME280;42176;43.240;27.880;2023-02-13T04:14:33;102221.94;;;-3.55;97.25
56270;BME280;42176;43.240;27.880;2023-02-13T04:17:08;102223.63;;;-3.30;98.33
56270;BME280;42176;43.240;27.880;2023-02-13T04:19:34;102210.72;;;-2.63;96.72
56270;BME280;42176;43.240;27.880;2023-02-13T04:22:01;102212.94;;;-2.82;91.44
56270;BME280;42176;43.240;27.880;2023-02-13T04:24:27;102213.53;;;-3.64;95.31
56270;BME280;42176;43.240;27.880;2023-02-13T04:26:53;102208.88;;;-3.82;98.02
56270;BME280;42176;43.240;27.880;2023-02-13T04:29:21;102225.75;;;-3.49;99.01
56270;BME280;42176;43.240;27.880;2023-02-13T04:31:46;102220.09;;;-3.05;98.22
56270;BME280;42176;43.240;27.880;2023-02-13T04:34:12;102218.13;;;-2.82;91.42
56270;BME280;42176;43.240;27.880;2023-02-13T04:36:37;102228.28;;;-3.63;94.97
56270;BME280;42176;43.240;27.880;2023-02-13T04:39:03;102230.16;;;-3.86;97.76
56270;BME280;42176;43.240;27.880;2023-02-13T04:41:28;102220.03;;;-3.83;99.83
56270;BME280;42176;43.240;27.880;2023-02-13T04:43:54;102225.97;;;-3.46;100.00
56270;BME280;42176;43.240;27.880;2023-02-13T04:46:19;102216.72;;;-2.77;92.93
56270;BME280;42176;43.240;27.880;2023-02-13T04:48:45;102217.22;;;-3.60;95.86
56270;BME280;42176;43.240;27.880;2023-02-13T04:51:10;102204.47;;;-3.83;98.09
56270;BME280;42176;43.240;27.880;2023-02-13T04:53:36;102215.97;;;-3.54;99.40
56270;BME280;42176;43.240;27.880;2023-02-13T04:56:01;102207.13;;;-2.92;97.76
56270;BME280;42176;43.240;27.880;2023-02-13T04:58:27;102226.50;;;-3.00;91.92
56270;BME280;42176;43.240;27.880;2023-02-13T05:00:52;102234.44;;;-3.74;95.59
56270;BME280;42176;43.240;27.880;2023-02-13T05:03:17;102212.41;;;-3.93;98.03
56270;BME280;42176;43.240;27.880;2023-02-13T05:05:43;102229.63;;;-3.56;99.30
56270;BME280;42176;43.240;27.880;2023-02-13T05:08:08;102228.53;;;-2.82;97.83
56270;BME280;42176;43.240;27.880;2023-02-13T05:10:34;102227.66;;;-3.08;92.20
56270;BME280;42176;43.240;27.880;2023-02-13T05:13:00;102233.84;;;-3.70;95.87
56270;BME280;42176;43.240;27.880;2023-02-13T05:15:26;102241.66;;;-3.82;98.24
56270;BME280;42176;43.240;27.880;2023-02-13T05:17:54;102243.59;;;-3.54;99.51
56270;BME280;42176;43.240;27.880;2023-02-13T05:20:19;102246.72;;;-2.55;94.81
56270;BME280;42176;43.240;27.880;2023-02-13T05:22:47;102249.22;;;-3.34;93.53
56270;BME280;42176;43.240;27.880;2023-02-13T05:25:32;102241.66;;;-2.93;98.11
56270;BME280;42176;43.240;27.880;2023-02-13T05:27:58;102231.91;;;-2.30;92.00
56270;BME280;42176;43.240;27.880;2023-02-13T05:30:23;102242.25;;;-1.61;81.10
56270;BME280;42176;43.240;27.880;2023-02-13T05:32:49;102255.22;;;-3.98;92.19
56270;BME280;42176;43.240;27.880;2023-02-13T05:35:20;102257.16;;;-3.70;100.00
56270;BME280;42176;43.240;27.880;2023-02-13T05:37:45;102254.09;;;-3.39;99.78
56270;BME280;42176;43.240;27.880;2023-02-13T05:40:12;102236.69;;;-2.63;97.97
56270;BME280;42176;43.240;27.880;2023-02-13T05:42:38;102243.91;;;-2.72;90.72
56270;BME280;42176;43.240;27.880;2023-02-13T05:45:04;102263.34;;;-3.31;94.81
56270;BME280;42176;43.240;27.880;2023-02-13T05:47:30;102259.19;;;-3.15;96.96
56270;BME280;42176;43.240;27.880;2023-02-13T05:49:55;102266.25;;;-2.87;97.04
56270;BME280;42176;43.240;27.880;2023-02-13T05:52:21;102255.56;;;-1.56;94.62
56270;BME280;42176;43.240;27.880;2023-02-13T05:54:46;102261.97;;;0.49;79.47
56270;BME280;42176;43.240;27.880;2023-02-13T05:57:12;102251.47;;;-0.18;76.89
56270;BME280;42176;43.240;27.880;2023-02-13T05:59:37;102199.16;;;-0.67;77.44
56270;BME280;42176;43.240;27.880;2023-02-13T06:02:03;102246.81;;;1.80;72.54
56270;BME280;42176;43.240;27.880;2023-02-13T06:04:28;102243.00;;;3.52;61.04
56270;BME280;42176;43.240;27.880;2023-02-13T06:06:54;102250.63;;;1.69;62.80
56270;BME280;42176;43.240;27.880;2023-02-13T06:09:19;102259.88;;;0.74;68.71
56270;BME280;42176;43.240;27.880;2023-02-13T06:11:46;102255.16;;;2.68;65.83
56270;BME280;42176;43.240;27.880;2023-02-13T06:14:11;102251.94;;;4.48;56.48
56270;BME280;42176;43.240;27.880;2023-02-13T06:16:38;102251.88;;;3.34;57.55
56270;BME280;42176;43.240;27.880;2023-02-13T06:19:03;102248.22;;;2.88;60.51
56270;BME280;42176;43.240;27.880;2023-02-13T06:21:29;102236.47;;;5.06;54.57
56270;BME280;42176;43.240;27.880;2023-02-13T06:23:54;102234.25;;;4.92;50.63
56270;BME280;42176;43.240;27.880;2023-02-13T06:26:20;102249.47;;;2.98;56.60
56270;BME280;42176;43.240;27.880;2023-02-13T06:28:45;102215.84;;;4.66;55.18
56270;BME280;42176;43.240;27.880;2023-02-13T06:31:11;102236.78;;;6.89;48.27
56270;BME280;42176;43.240;27.880;2023-02-13T06:33:37;102226.34;;;4.18;51.95
56270;BME280;42176;43.240;27.880;2023-02-13T06:36:02;102252.44;;;3.92;54.66
56270;BME280;42176;43.240;27.880;2023-02-13T06:38:28;102244.44;;;6.47;49.71
56270;BME280;42176;43.240;27.880;2023-02-13T06:40:58;102230.41;;;7.86;45.74
56270;BME280;42176;43.240;27.880;2023-02-13T06:43:25;102238.84;;;9.47;41.98
56270;BME280;42176;43.240;27.880;2023-02-13T06:45:50;102236.94;;;10.63;38.93
56270;BME280;42176;43.240;27.880;2023-02-13T06:48:18;102236.09;;;11.60;36.72
56270;BME280;42176;43.240;27.880;2023-02-13T06:50:43;102236.59;;;12.49;34.86
56270;BME280;42176;43.240;27.880;2023-02-13T06:53:09;102234.03;;;12.82;33.65
56270;BME280;42176;43.240;27.880;2023-02-13T06:55:35;102229.66;;;13.37;32.38
56270;BME280;42176;43.240;27.880;2023-02-13T06:58:01;102233.09;;;14.10;32.25
56270;BME280;42176;43.240;27.880;2023-02-13T07:00:26;102235.47;;;14.83;31.13
56270;BME280;42176;43.240;27.880;2023-02-13T07:02:52;102231.00;;;14.87;30.52
56270;BME280;42176;43.240;27.880;2023-02-13T07:05:18;102247.22;;;9.21;37.78
56270;BME280;42176;43.240;27.880;2023-02-13T07:07:43;102254.25;;;6.83;44.88
56270;BME280;42176;43.240;27.880;2023-02-13T07:10:11;102245.28;;;7.10;45.41
56270;BME280;42176;43.240;27.880;2023-02-13T07:12:37;102235.22;;;9.40;40.96
56270;BME280;42176;43.240;27.880;2023-02-13T07:15:03;102240.16;;;9.20;39.95
56270;BME280;42176;43.240;27.880;2023-02-13T07:17:29;102247.78;;;6.72;46.71
56270;BME280;42176;43.240;27.880;2023-02-13T07:19:55;102252.69;;;6.60;47.08
56270;BME280;42176;43.240;27.880;2023-02-13T07:22:21;102248.28;;;9.29;43.44
56270;BME280;42176;43.240;27.880;2023-02-13T07:24:46;102241.06;;;8.72;41.78
56270;BME280;42176;43.240;27.880;2023-02-13T07:27:11;102229.25;;;6.69;45.36
56270;BME280;42176;43.240;27.880;2023-02-13T07:29:37;102244.38;;;7.82;43.39
56270;BME280;42176;43.240;27.880;2023-02-13T07:32:02;102246.22;;;8.65;41.65
56270;BME280;42176;43.240;27.880;2023-02-13T07:34:30;102236.72;;;5.94;44.50
56270;BME280;42176;43.240;27.880;2023-02-13T07:36:56;102256.78;;;6.48;45.71
56270;BME280;42176;43.240;27.880;2023-02-13T07:39:21;102242.19;;;7.62;43.42
56270;BME280;42176;43.240;27.880;2023-02-13T07:41:46;102247.75;;;7.04;42.76
56270;BME280;42176;43.240;27.880;2023-02-13T07:44:12;102245.72;;;5.20;46.03
56270;BME280;42176;43.240;27.880;2023-02-13T07:46:37;102227.44;;;7.00;44.35
56270;BME280;42176;43.240;27.880;2023-02-13T07:49:03;102229.63;;;8.31;41.18
56270;BME280;42176;43.240;27.880;2023-02-13T07:51:29;102224.22;;;5.59;45.33
56270;BME280;42176;43.240;27.880;2023-02-13T07:53:55;102219.31;;;5.17;48.05
56270;BME280;42176;43.240;27.880;2023-02-13T07:56:21;102214.00;;;6.27;45.81
56270;BME280;42176;43.240;27.880;2023-02-13T07:58:46;102212.13;;;6.86;43.10
56270;BME280;42176;43.240;27.880;2023-02-13T08:01:14;102211.00;;;7.45;41.74
56270;BME280;42176;43.240;27.880;2023-02-13T08:03:47;102210.56;;;7.65;43.75
56270;BME280;42176;43.240;27.880;2023-02-13T08:06:15;102221.06;;;7.62;44.64
56270;BME280;42176;43.240;27.880;2023-02-13T08:08:41;102212.22;;;7.60;44.94
56270;BME280;42176;43.240;27.880;2023-02-13T08:11:18;102215.91;;;7.67;44.64
56270;BME280;42176;43.240;27.880;2023-02-13T08:14:05;102220.25;;;7.66;45.07
56270;BME280;42176;43.240;27.880;2023-02-13T08:16:30;102221.88;;;7.98;45.08
56270;BME280;42176;43.240;27.880;2023-02-13T08:18:56;102219.31;;;8.01;45.20
56270;BME280;42176;43.240;27.880;2023-02-13T08:21:21;102218.22;;;8.34;44.62
56270;BME280;42176;43.240;27.880;2023-02-13T08:23:47;102224.19;;;7.45;44.90
56270;BME280;42176;43.240;27.880;2023-02-13T08:26:13;102240.41;;;4.44;52.86
56270;BME280;42176;43.240;27.880;2023-02-13T08:28:38;102236.13;;;3.99;56.37
56270;BME280;42176;43.240;27.880;2023-02-13T08:31:09;102222.06;;;4.94;53.75
56270;BME280;42176;43.240;27.880;2023-02-13T08:33:35;102232.72;;;4.24;54.59
56270;BME280;42176;43.240;27.880;2023-02-13T08:36:02;102219.16;;;3.68;59.21
56270;BME280;42176;43.240;27.880;2023-02-13T08:38:27;102227.06;;;5.12;55.15
56270;BME280;42176;43.240;27.880;2023-02-13T08:40:55;102222.78;;;5.16;52.48
56270;BME280;42176;43.240;27.880;2023-02-13T08:43:21;102230.84;;;3.54;57.09
56270;BME280;42176;43.240;27.880;2023-02-13T08:45:46;102230.88;;;3.99;58.40
56270;BME280;42176;43.240;27.880;2023-02-13T08:48:12;102228.28;;;4.96;54.50
56270;BME280;42176;43.240;27.880;2023-02-13T08:50:37;102219.25;;;5.69;52.30
56270;BME280;42176;43.240;27.880;2023-02-13T08:53:03;102218.41;;;6.28;50.49
56270;BME280;42176;43.240;27.880;2023-02-13T08:55:29;102214.31;;;7.03;47.75
56270;BME280;42176;43.240;27.880;2023-02-13T08:57:59;102222.69;;;7.57;45.82
56270;BME280;42176;43.240;27.880;2023-02-13T09:00:24;102221.94;;;7.62;45.49
56270;BME280;42176;43.240;27.880;2023-02-13T09:02:50;102223.22;;;5.83;47.94
56270;BME280;42176;43.240;27.880;2023-02-13T09:05:15;102195.34;;;3.85;54.67
56270;BME280;42176;43.240;27.880;2023-02-13T09:07:41;102211.19;;;3.65;58.42
56270;BME280;42176;43.240;27.880;2023-02-13T09:10:07;102219.31;;;4.65;54.71
56270;BME280;42176;43.240;27.880;2023-02-13T09:12:32;102210.94;;;5.27;51.62
56270;BME280;42176;43.240;27.880;2023-02-13T09:14:58;102195.09;;;3.78;55.11
56270;BME280;42176;43.240;27.880;2023-02-13T09:17:23;102204.22;;;4.11;56.58
56270;BME280;42176;43.240;27.880;2023-02-13T09:19:49;102200.78;;;4.86;54.00
56270;BME280;42176;43.240;27.880;2023-02-13T09:22:14;102211.81;;;4.52;51.89
56270;BME280;42176;43.240;27.880;2023-02-13T09:24:41;102203.16;;;3.39;56.77
56270;BME280;42176;43.240;27.880;2023-02-13T09:27:07;102190.56;;;3.97;55.56
56270;BME280;42176;43.240;27.880;2023-02-13T09:29:33;102197.84;;;4.53;53.68
56270;BME280;42176;43.240;27.880;2023-02-13T09:31:59;102186.50;;;3.83;53.95
56270;BME280;42176;43.240;27.880;2023-02-13T09:34:27;102190.31;;;3.03;57.60
56270;BME280;42176;43.240;27.880;2023-02-13T09:36:53;102179.16;;;3.74;55.92
56270;BME280;42176;43.240;27.880;2023-02-13T09:39:18;102164.88;;;4.37;54.11
56270;BME280;42176;43.240;27.880;2023-02-13T09:41:46;102167.56;;;4.38;52.06
56270;BME280;42176;43.240;27.880;2023-02-13T09:47:34;102153.50;;;4.12;54.41
56270;BME280;42176;43.240;27.880;2023-02-13T09:50:24;102151.44;;;4.78;52.36
56270;BME280;42176;43.240;27.880;2023-02-13T09:52:54;102142.72;;;5.33;49.74
56270;BME280;42176;43.240;27.880;2023-02-13T09:55:24;102145.22;;;4.01;53.46
56270;BME280;42176;43.240;27.880;2023-02-13T09:57:59;102135.94;;;3.87;57.09
56270;BME280;42176;43.240;27.880;2023-02-13T10:00:41;102131.78;;;4.66;53.60
56270;BME280;42176;43.240;27.880;2023-02-13T10:03:23;102123.72;;;4.62;53.06
56270;BME280;42176;43.240;27.880;2023-02-13T10:06:03;102125.53;;;3.65;54.64
56270;BME280;42176;43.240;27.880;2023-02-13T10:14:05;102101.19;;;4.94;51.35
56270;BME280;42176;43.240;27.880;2023-02-13T10:16:39;102101.19;;;4.42;50.73
56270;BME280;42176;43.240;27.880;2023-02-13T10:24:48;102093.22;;;4.65;50.62
56270;BME280;42176;43.240;27.880;2023-02-13T10:27:25;102101.63;;;3.58;53.38
56270;BME280;42176;43.240;27.880;2023-02-13T10:29:55;102093.47;;;3.74;53.61
56270;BME280;42176;43.240;27.880;2023-02-13T10:33:05;102084.78;;;4.24;52.63
56270;BME280;42176;43.240;27.880;2023-02-13T10:36:04;102089.63;;;4.63;50.68
56270;BME280;42176;43.240;27.880;2023-02-13T10:38:33;102082.78;;;3.68;52.79
56270;BME280;42176;43.240;27.880;2023-02-13T10:55:50;102060.97;;;4.98;49.43
56270;BME280;42176;43.240;27.880;2023-02-13T10:58:18;102056.31;;;5.17;49.01
56270;BME280;42176;43.240;27.880;2023-02-13T11:03:19;102057.22;;;5.17;48.28
56270;BME280;42176;43.240;27.880;2023-02-13T11:05:45;102055.63;;;4.16;51.40
56270;BME280;42176;43.240;27.880;2023-02-13T11:08:22;102062.28;;;4.56;50.44
56270;BME280;42176;43.240;27.880;2023-02-13T11:10:49;102060.47;;;4.83;49.69
56270;BME280;42176;43.240;27.880;2023-02-13T11:13:25;102052.63;;;4.05;51.54
56270;BME280;42176;43.240;27.880;2023-02-13T11:16:14;102048.66;;;4.42;50.98
56270;BME280;42176;43.240;27.880;2023-02-13T11:18:42;102049.22;;;4.85;49.97
56270;BME280;42176;43.240;27.880;2023-02-13T11:21:20;102032.69;;;4.36;51.36
56270;BME280;42176;43.240;27.880;2023-02-13T11:23:53;102028.94;;;4.83;50.04
56270;BME280;42176;43.240;27.880;2023-02-13T11:26:33;102031.31;;;5.02;48.59
56270;BME280;42176;43.240;27.880;2023-02-13T11:29:16;102025.69;;;4.35;50.72
56270;BME280;42176;43.240;27.880;2023-02-13T11:31:42;102023.19;;;4.67;50.59
56270;BME280;42176;43.240;27.880;2023-02-13T11:34:29;102017.25;;;5.00;49.61
56270;BME280;42176;43.240;27.880;2023-02-13T11:37:15;102009.47;;;5.03;48.92
56270;BME280;42176;43.240;27.880;2023-02-13T11:39:43;101994.91;;;4.31;50.78
56270;BME280;42176;43.240;27.880;2023-02-13T11:42:23;102013.28;;;4.86;50.46
56270;BME280;42176;43.240;27.880;2023-02-13T11:45:00;102009.81;;;5.16;50.11
56270;BME280;42176;43.240;27.880;2023-02-13T11:47:36;102002.69;;;5.41;48.95
56270;BME280;42176;43.240;27.880;2023-02-13T11:50:03;102001.13;;;5.47;48.33
56270;BME280;42176;43.240;27.880;2023-02-13T11:52:34;102000.22;;;4.60;50.58
56270;BME280;42176;43.240;27.880;2023-02-13T11:55:02;101988.31;;;4.71;50.47
56270;BME280;42176;43.240;27.880;2023-02-13T11:57:33;101997.72;;;4.92;50.11
56270;BME280;42176;43.240;27.880;2023-02-13T12:00:08;101996.69;;;5.16;49.39
56270;BME280;42176;43.240;27.880;2023-02-13T12:02:48;101983.84;;;4.41;51.80
56270;BME280;42176;43.240;27.880;2023-02-13T12:05:25;101986.78;;;4.78;51.02
56270;BME280;42176;43.240;27.880;2023-02-13T12:07:50;101972.72;;;5.05;49.89
56270;BME280;42176;43.240;27.880;2023-02-13T12:10:36;101975.34;;;5.36;48.90
56270;BME280;42176;43.240;27.880;2023-02-13T12:15:37;101970.59;;;4.93;50.48
56270;BME280;42176;43.240;27.880;2023-02-13T12:23:56;101965.28;;;5.83;49.28
56270;BME280;42176;43.240;27.880;2023-02-13T12:26:36;101970.22;;;5.40;52.37
56270;BME280;42176;43.240;27.880;2023-02-13T12:46:00;101959.78;;;3.76;61.82
56270;BME280;42176;43.240;27.880;2023-02-13T12:51:29;101950.28;;;4.31;59.35
56270;BME280;42176;43.240;27.880;2023-02-13T13:11:17;101887.72;;;3.40;60.08
56270;BME280;42176;43.240;27.880;2023-02-13T13:16:16;101951.13;;;4.04;57.57
56270;BME280;42176;43.240;27.880;2023-02-13T13:24:20;101942.25;;;3.75;56.96
56270;BME280;42176;43.240;27.880;2023-02-13T13:26:49;101935.78;;;4.17;54.72
56270;BME280;42176;43.240;27.880;2023-02-13T13:29:21;101940.06;;;3.63;55.27
56270;BME280;42176;43.240;27.880;2023-02-13T13:32:01;101922.53;;;3.36;55.74
56270;BME280;42176;43.240;27.880;2023-02-13T13:34:29;101939.25;;;3.64;54.95
56270;BME280;42176;43.240;27.880;2023-02-13T13:36:58;101925.50;;;3.71;53.71
56270;BME280;42176;43.240;27.880;2023-02-13T13:39:49;101917.34;;;3.88;52.38
56270;BME280;42176;43.240;27.880;2023-02-13T13:42:34;101923.19;;;4.06;51.22
56270;BME280;42176;43.240;27.880;2023-02-13T13:45:18;101912.06;;;4.14;50.18
56270;BME280;42176;43.240;27.880;2023-02-13T13:50:40;101921.84;;;3.17;51.74
56270;BME280;42176;43.240;27.880;2023-02-13T13:53:12;101914.84;;;2.71;53.86
56270;BME280;42176;43.240;27.880;2023-02-13T14:01:28;101906.06;;;3.64;51.50
56270;BME280;42176;43.240;27.880;2023-02-13T14:14:51;101897.94;;;2.85;52.90
56270;BME280;42176;43.240;27.880;2023-02-13T14:22:46;101886.88;;;3.41;50.45
56270;BME280;42176;43.240;27.880;2023-02-13T14:25:26;101878.47;;;3.26;50.46
56270;BME280;42176;43.240;27.880;2023-02-13T14:28:01;101887.72;;;2.69;51.83
56270;BME280;42176;43.240;27.880;2023-02-13T14:30:37;101894.97;;;2.76;52.90
56270;BME280;42176;43.240;27.880;2023-02-13T14:33:22;101869.09;;;3.08;53.08
56270;BME280;42176;43.240;27.880;2023-02-13T14:35:59;101888.50;;;2.66;56.16
56270;BME280;42176;43.240;27.880;2023-02-13T14:38:26;101879.97;;;2.72;57.48
56270;BME280;42176;43.240;27.880;2023-02-13T14:40:53;101880.56;;;2.87;56.41
56270;BME280;42176;43.240;27.880;2023-02-13T14:43:28;101873.13;;;3.23;54.54
56270;BME280;42176;43.240;27.880;2023-02-13T14:45:56;101886.88;;;2.70;56.20
56270;BME280;42176;43.240;27.880;2023-02-13T14:48:33;101871.13;;;2.68;57.00
56270;BME280;42176;43.240;27.880;2023-02-13T14:51:00;101873.31;;;2.80;55.79
56270;BME280;42176;43.240;27.880;2023-02-13T14:53:32;101859.47;;;2.84;54.73
56270;BME280;42176;43.240;27.880;2023-02-13T14:56:09;101868.06;;;2.12;58.10
56270;BME280;42176;43.240;27.880;2023-02-13T14:58:45;101859.56;;;1.96;60.85
56270;BME280;42176;43.240;27.880;2023-02-13T15:01:40;101864.25;;;2.26;60.73
56270;BME280;42176;43.240;27.880;2023-02-13T15:04:48;101864.69;;;2.37;61.43
56270;BME280;42176;43.240;27.880;2023-02-13T15:07:20;101863.56;;;2.53;60.60
56270;BME280;42176;43.240;27.880;2023-02-13T15:09:52;101854.75;;;2.51;59.46
56270;BME280;42176;43.240;27.880;2023-02-13T15:14:57;101857.66;;;1.92;63.48
56270;BME280;42176;43.240;27.880;2023-02-13T15:17:31;101851.38;;;2.10;62.76
56270;BME280;42176;43.240;27.880;2023-02-13T15:22:38;101867.75;;;1.83;63.17
56270;BME280;42176;43.240;27.880;2023-02-13T15:25:06;101865.81;;;1.17;67.82
56270;BME280;42176;43.240;27.880;2023-02-13T15:27:40;101851.91;;;1.38;67.86
56270;BME280;42176;43.240;27.880;2023-02-13T15:30:23;101858.81;;;1.78;66.63
56270;BME280;42176;43.240;27.880;2023-02-13T15:32:57;101871.44;;;2.09;63.53
56270;BME280;42176;43.240;27.880;2023-02-13T15:35:27;101870.91;;;1.76;64.97
56270;BME280;42176;43.240;27.880;2023-02-13T15:37:53;101871.16;;;1.40;66.81
56270;BME280;42176;43.240;27.880;2023-02-13T15:40:31;101866.13;;;1.44;67.82
56270;BME280;42176;43.240;27.880;2023-02-13T15:42:58;101861.56;;;1.60;66.63
56270;BME280;42176;43.240;27.880;2023-02-13T15:45:26;101867.09;;;1.67;65.54
56270;BME280;42176;43.240;27.880;2023-02-13T15:47:53;101873.41;;;2.15;62.12